KTPH/TPH METAR and TAF weather

Enter ICAO airport designator
Station Type Date Time Source
KTPH METAR 2021/10/20 05:56 UTC NOAA

KTPH 200556Z AUTO 13007KT 10SM CLR 05/M06 A3014 RMK AO2 SLP191 T00501061 10150 20039 53021


Station Type Date Time Source
KTPH Decoded METAR 2021/10/20 05:56 UTC NOAA

TONOPAH AIRPORT, NV, United States (KTPH) 38-02N 117-05W 1652M
Oct 20, 2021 - 01:56 AM EDT / 2021.10.20 0556 UTC
Wind: from the SE (130 degrees) at 8 MPH (7 KT):0
Visibility: 10 mile(s):0
Sky conditions: clear
Temperature: 41.0 F (5.0 C)
Dew Point: 21.0 F (-6.1 C)
Relative Humidity: 44%
Pressure (altimeter): 30.14 in. Hg (1020 hPa)
Pressure tendency: 0.06 inches (2.1 hPa) higher than three hours ago
ob: KTPH 200556Z AUTO 13007KT 10SM CLR 05/M06 A3014 RMK AO2 SLP191 T00501061 10150 20039 53021
cycle: 6

Station Type Date Time Source
KTPH TAF 2021/10/20 06:22 UTC NOAA

TAF KTPH 200520Z 2006/2106 04009KT P6SM SCT250
FM201800 18006KT P6SM SCT200 BKN250
FM210200 04007KT P6SM BKN150 OVC200

Example: see airport list